Kezdőlap
METAR-TAF:

METAR-TAF

Repülőterek :

Okmulgee, Oklahoma, Amerikai Egyesült Államok

földrajzi szélesség: 35-40-05N, földrajzi hosszúság: 095-56-55W, magasság: 220 m

Jelenlegi meteorológiai megfigyelések

A jelentés 21 perccel ezelõtt készült, 03:35 UTC
Dél-délkeleti szél 4 kt
Hőmérséklet 26°C
Páratartalom 70%
Légköri nyomás 1018 hPa
Látótávolság: 16.1 km
Derült ég

METAR: KOKM 220335Z AUTO 15004KT 10SM CLR 26/20 A3007 RMK AO2 T02550200

Idő: 22:56 (03:56 UTC)


TAF: hiányzik

Meteorológiai megfigyelések és előrejelzések több, mint 4000 repülőtéren (METAR és TAF jelentéseket).

A térképen piros és sárga pontok jelzik az elérhető meteorológiai állomásokat.

Mozgassa az egeret a pont fölött, hogy megjelenjen az állomás neve.

Azután kattintson az időjárási megfigyelések és előrejelzések megtekintéséhez.

A térkép megváltoztatása: kattintson a fekete keresztel jelölt zöld gombra ráközelítéshez, a vonallal jelölt zöld gombra távolításhoz, vagy a zöld nyilakra a szomszédos térképek eléréséhez.


METAR-TAF: